createdAt,value
2023-02-22T00:00:19.845Z,99454.28
2023-02-22T00:02:32.641Z,99455.28
2023-02-22T00:04:35.731Z,99463.38
2023-02-22T00:06:38.134Z,99463.69
2023-02-22T00:08:40.539Z,99464.72
2023-02-22T00:10:43.087Z,99450.72
2023-02-22T00:12:45.053Z,99462.28
2023-02-22T00:14:47.140Z,99459.00
2023-02-22T00:16:50.767Z,99459.03
2023-02-22T00:18:55.087Z,99461.72
2023-02-22T00:21:02.194Z,99463.88
2023-02-22T00:23:07.263Z,99466.69
2023-02-22T00:25:10.245Z,99466.78
2023-02-22T00:27:12.215Z,99468.63
2023-02-22T00:29:14.312Z,99474.84
2023-02-22T00:31:17.099Z,99471.38
2023-02-22T00:33:22.694Z,99463.38
2023-02-22T00:35:28.592Z,99458.34
2023-02-22T00:37:33.678Z,99465.50
2023-02-22T00:39:35.489Z,99464.72
2023-02-22T00:41:37.692Z,99460.34
2023-02-22T00:43:39.756Z,99459.47
2023-02-22T00:45:42.740Z,99463.31
2023-02-22T00:47:44.903Z,99465.13
2023-02-22T00:49:49.953Z,99468.75
2023-02-22T00:51:52.433Z,99466.09
2023-02-22T00:53:54.533Z,99459.91
2023-02-22T00:55:56.705Z,99457.31
2023-02-22T00:58:00.148Z,99469.13
2023-02-22T01:00:12.814Z,99461.41
2023-02-22T01:02:14.962Z,99463.94
2023-02-22T01:04:18.703Z,99453.22
2023-02-22T01:06:21.107Z,99463.13
2023-02-22T01:08:25.294Z,99453.38
2023-02-22T01:10:29.910Z,99453.53
2023-02-22T01:12:32.136Z,99466.00
2023-02-22T01:14:34.305Z,99459.84
2023-02-22T01:16:37.054Z,99462.59
2023-02-22T01:18:39.387Z,99464.53
2023-02-22T01:20:41.625Z,99462.69
2023-02-22T01:22:47.408Z,99472.03
2023-02-22T01:24:51.113Z,99468.25
2023-02-22T01:26:53.418Z,99473.59
2023-02-22T01:28:55.596Z,99471.97
2023-02-22T01:30:57.984Z,99464.03
2023-02-22T01:33:04.087Z,99458.75
2023-02-22T01:35:10.155Z,99461.44
2023-02-22T01:37:13.800Z,99469.59
2023-02-22T01:39:18.036Z,99480.41
2023-02-22T01:41:20.625Z,99479.41
2023-02-22T01:43:31.275Z,99482.53
2023-02-22T01:45:33.310Z,99481.47
2023-02-22T01:47:35.364Z,99485.13
2023-02-22T01:49:43.370Z,99482.63
2023-02-22T01:51:49.353Z,99486.28
2023-02-22T01:53:54.279Z,99486.44
2023-02-22T01:55:57.934Z,99484.59
2023-02-22T01:58:00.328Z,99488.28
2023-02-22T02:00:11.141Z,99488.41
2023-02-22T02:02:19.436Z,99489.22
2023-02-22T02:04:25.677Z,99491.22
2023-02-22T02:06:33.899Z,99485.88
2023-02-22T02:08:51.710Z,99488.78
2023-02-22T02:10:57.876Z,99487.78
2023-02-22T02:13:00.173Z,99484.13
2023-02-22T02:15:29.147Z,99486.22
2023-02-22T02:17:31.106Z,99487.81
2023-02-22T02:19:57.330Z,99493.63
2023-02-22T02:22:17.587Z,99488.22
2023-02-22T02:24:33.723Z,99491.69
2023-02-22T02:27:06.534Z,99498.13
2023-02-22T02:29:44.378Z,99487.06
2023-02-22T02:32:12.226Z,99493.88
2023-02-22T02:34:17.197Z,99491.00
2023-02-22T02:36:36.420Z,99490.09
2023-02-22T02:39:01.813Z,99492.53
2023-02-22T02:41:13.532Z,99492.41
2023-02-22T02:43:27.963Z,99488.88
2023-02-22T02:45:40.234Z,99483.50
2023-02-22T02:47:49.710Z,99493.50
2023-02-22T02:50:08.346Z,99496.91
2023-02-22T02:52:13.430Z,99491.47
2023-02-22T02:54:16.047Z,99498.59
2023-02-22T02:56:19.047Z,99500.34
2023-02-22T02:58:24.034Z,99494.06
2023-02-22T03:00:39.511Z,99499.41
2023-02-22T03:03:14.007Z,99501.13
2023-02-22T03:05:24.771Z,99508.34
2023-02-22T03:07:40.457Z,99507.44
2023-02-22T03:10:01.279Z,99514.75
2023-02-22T03:12:38.117Z,99509.25
2023-02-22T03:15:05.293Z,99513.88
2023-02-22T03:17:30.346Z,99499.34
2023-02-22T03:19:49.016Z,99504.72
2023-02-22T03:21:56.859Z,99505.50
2023-02-22T03:24:10.071Z,99506.44
2023-02-22T03:26:19.731Z,99508.06
2023-02-22T03:28:29.510Z,99505.38
2023-02-22T03:30:53.380Z,99510.59
2023-02-22T03:33:40.590Z,99508.06
2023-02-22T03:35:56.978Z,99508.91
2023-02-22T03:38:04.155Z,99515.97
2023-02-22T03:40:16.899Z,99512.25
2023-02-22T03:42:26.419Z,99523.00
2023-02-22T03:44:31.323Z,99525.59
2023-02-22T03:46:36.218Z,99523.09
2023-02-22T03:48:58.050Z,99525.78
2023-02-22T03:51:06.103Z,99532.66
2023-02-22T03:53:10.717Z,99538.00
2023-02-22T03:55:17.851Z,99532.50
2023-02-22T03:57:36.465Z,99537.16
2023-02-22T03:59:41.204Z,99534.22
2023-02-22T04:01:43.544Z,99538.69
2023-02-22T04:03:46.073Z,99536.91
2023-02-22T04:05:49.840Z,99536.03
2023-02-22T04:07:56.960Z,99534.38
2023-02-22T04:09:59.164Z,99523.56
2023-02-22T04:12:01.290Z,99529.91
2023-02-22T04:14:06.185Z,99528.13
2023-02-22T04:16:08.266Z,99536.25
2023-02-22T04:18:11.316Z,99539.84
2023-02-22T04:20:14.512Z,99538.69
2023-02-22T04:22:24.148Z,99540.38
2023-02-22T04:24:30.434Z,99540.47
2023-02-22T04:26:32.906Z,99544.06
2023-02-22T04:28:37.077Z,99536.75
2023-02-22T04:30:49.019Z,99542.81
2023-02-22T04:32:53.087Z,99541.09
2023-02-22T04:34:57.357Z,99546.47
2023-02-22T04:37:00.138Z,99541.03
2023-02-22T04:39:02.693Z,99536.53
2023-02-22T04:41:05.850Z,99548.25
2023-02-22T04:43:08.302Z,99542.16
2023-02-22T04:45:13.724Z,99545.53
2023-02-22T04:47:15.875Z,99542.09
2023-02-22T04:49:17.784Z,99546.63
2023-02-22T04:51:21.768Z,99537.50
2023-02-22T04:53:38.281Z,99539.19
2023-02-22T04:55:41.864Z,99539.22
2023-02-22T04:57:44.227Z,99541.97
2023-02-22T04:59:46.545Z,99540.91
2023-02-22T05:01:49.539Z,99549.94
2023-02-22T05:03:51.693Z,99545.56
2023-02-22T05:05:53.684Z,99549.91
2023-02-22T05:07:55.943Z,99542.72
2023-02-22T05:09:57.993Z,99540.00
2023-02-22T05:12:00.310Z,99548.09
2023-02-22T05:14:02.301Z,99554.31
2023-02-22T05:16:04.860Z,99550.38
2023-02-22T05:18:06.956Z,99549.16
2023-02-22T05:20:19.527Z,99556.16
2023-02-22T05:22:21.732Z,99548.75
2023-02-22T05:24:23.908Z,99555.63
2023-02-22T05:26:27.453Z,99556.53
2023-02-22T05:28:30.032Z,99558.91
2023-02-22T05:30:34.594Z,99562.44
2023-02-22T05:32:36.704Z,99560.47
2023-02-22T05:34:39.369Z,99563.91
2023-02-22T05:36:41.780Z,99564.84
2023-02-22T05:38:44.901Z,99569.56
2023-02-22T05:40:47.181Z,99574.00
2023-02-22T05:42:51.178Z,99566.16
2023-02-22T05:44:53.437Z,99578.66
2023-02-22T05:46:55.489Z,99580.41
2023-02-22T05:48:59.872Z,99586.75
2023-02-22T05:51:01.917Z,99590.44
2023-02-22T05:53:05.691Z,99588.69
2023-02-22T05:55:09.658Z,99602.97
2023-02-22T05:57:11.837Z,99603.84
2023-02-22T05:59:13.880Z,99606.88
2023-02-22T06:01:16.545Z,99609.59
2023-02-22T06:03:19.000Z,99613.00
2023-02-22T06:05:22.328Z,99615.81
2023-02-22T06:07:24.552Z,99620.31
2023-02-22T06:09:26.666Z,99619.22
2023-02-22T06:11:28.822Z,99619.22
2023-02-22T06:13:31.655Z,99628.97
2023-02-22T06:15:33.954Z,99624.28
2023-02-22T06:17:36.712Z,99634.50
2023-02-22T06:19:39.235Z,99634.25
2023-02-22T06:21:52.143Z,99630.38
2023-02-22T06:23:54.412Z,99642.66
2023-02-22T06:25:56.349Z,99637.94
2023-02-22T06:27:59.945Z,99646.66
2023-02-22T06:30:03.177Z,99649.34
2023-02-22T06:32:05.446Z,99649.16
2023-02-22T06:34:07.554Z,99645.56
2023-02-22T06:36:09.908Z,99643.63
2023-02-22T06:38:11.947Z,99647.97
2023-02-22T06:40:15.109Z,99658.66
2023-02-22T06:42:17.247Z,99654.06
2023-02-22T06:44:19.386Z,99662.03
2023-02-22T06:46:21.993Z,99662.00
2023-02-22T06:48:24.142Z,99662.13
2023-02-22T06:50:30.486Z,99671.03
2023-02-22T06:52:32.612Z,99671.88
2023-02-22T06:54:34.661Z,99659.34
2023-02-22T06:56:36.829Z,99663.75
2023-02-22T06:58:38.848Z,99661.81
2023-02-22T07:00:41.617Z,99670.78
2023-02-22T07:02:43.924Z,99662.75
2023-02-22T07:04:46.156Z,99672.75
2023-02-22T07:06:49.877Z,99678.84
2023-02-22T07:08:52.030Z,99677.06
2023-02-22T07:10:54.322Z,99680.56
2023-02-22T07:12:56.695Z,99685.78
2023-02-22T07:14:58.739Z,99672.28
2023-02-22T07:17:01.064Z,99672.25
2023-02-22T07:19:03.397Z,99673.06
2023-02-22T07:21:06.477Z,99671.38
2023-02-22T07:23:09.119Z,99663.91
2023-02-22T07:25:14.357Z,99668.13
2023-02-22T07:27:17.352Z,99666.19
2023-02-22T07:29:19.504Z,99666.59
2023-02-22T07:31:22.055Z,99669.00
2023-02-22T07:33:24.270Z,99663.13
2023-02-22T07:35:31.680Z,99662.88
2023-02-22T07:37:33.978Z,99667.59
2023-02-22T07:39:38.064Z,99672.56
2023-02-22T07:41:40.491Z,99671.94
2023-02-22T07:43:56.625Z,99665.78
2023-02-22T07:46:00.701Z,99670.56
2023-02-22T07:48:04.575Z,99676.25
2023-02-22T07:50:06.835Z,99672.63
2023-02-22T07:52:08.886Z,99671.81
2023-02-22T07:54:11.358Z,99673.81
2023-02-22T07:56:13.404Z,99668.47
2023-02-22T07:58:15.985Z,99674.81
2023-02-22T08:00:24.399Z,99667.69
2023-02-22T08:02:26.812Z,99671.06
2023-02-22T08:04:31.814Z,99665.59
2023-02-22T08:06:34.252Z,99671.84
2023-02-22T08:08:36.494Z,99663.78
2023-02-22T08:10:38.518Z,99664.59
2023-02-22T08:12:41.392Z,99666.28
2023-02-22T08:14:43.352Z,99664.47
2023-02-22T08:16:45.439Z,99664.09
2023-02-22T08:18:47.731Z,99669.09
2023-02-22T08:20:52.243Z,99658.97
2023-02-22T08:22:57.112Z,99672.44
2023-02-22T08:24:59.218Z,99664.47
2023-02-22T08:27:01.779Z,99660.38
2023-02-22T08:29:03.949Z,99667.91
2023-02-22T08:31:07.823Z,99667.38
2023-02-22T08:33:11.165Z,99670.38
2023-02-22T08:35:14.782Z,99659.84
2023-02-22T08:37:18.257Z,99667.84
2023-02-22T08:39:20.610Z,99675.78
2023-02-22T08:41:22.757Z,99663.31
2023-02-22T08:43:24.983Z,99670.44
2023-02-22T08:45:27.457Z,99667.59
2023-02-22T08:47:29.563Z,99656.94
2023-02-22T08:49:32.227Z,99662.09
2023-02-22T08:51:37.463Z,99664.56
2023-02-22T08:53:39.569Z,99666.03
2023-02-22T08:55:42.270Z,99673.09
2023-02-22T08:57:44.390Z,99667.28
2023-02-22T08:59:46.527Z,99673.13
2023-02-22T09:01:48.736Z,99671.50
2023-02-22T09:03:52.149Z,99667.47
2023-02-22T09:05:54.777Z,99666.31
2023-02-22T09:07:57.349Z,99675.06
2023-02-22T09:09:59.602Z,99669.50
2023-02-22T09:12:02.558Z,99675.72
2023-02-22T09:14:04.855Z,99676.19
2023-02-22T09:16:07.277Z,99678.53
2023-02-22T09:18:12.525Z,99679.38
2023-02-22T09:20:18.150Z,99682.97
2023-02-22T09:22:20.080Z,99675.88
2023-02-22T09:24:23.087Z,99684.78
2023-02-22T09:26:25.174Z,99682.56
2023-02-22T09:28:29.192Z,99684.34
2023-02-22T09:30:36.155Z,99688.56
2023-02-22T09:32:38.534Z,99686.16
2023-02-22T09:34:45.987Z,99684.91
2023-02-22T09:36:49.941Z,99681.88
2023-02-22T09:38:52.646Z,99689.69
2023-02-22T09:41:14.318Z,99689.88
2023-02-22T09:43:50.516Z,99682.34
2023-02-22T09:45:56.059Z,99683.31
2023-02-22T09:48:15.191Z,99691.06
2023-02-22T09:50:28.830Z,99676.44
2023-02-22T09:52:41.587Z,99682.78
2023-02-22T09:54:52.287Z,99688.75
2023-02-22T09:56:58.604Z,99692.09
2023-02-22T09:59:07.290Z,99694.00
2023-02-22T10:01:29.770Z,99693.19
2023-02-22T10:03:40.647Z,99685.19
2023-02-22T10:05:48.382Z,99687.25
2023-02-22T10:08:06.158Z,99685.00
2023-02-22T10:10:17.506Z,99678.63
2023-02-22T10:12:30.243Z,99682.28
2023-02-22T10:14:49.109Z,99682.34
2023-02-22T10:17:15.747Z,99683.38
2023-02-22T10:19:41.377Z,99688.09
2023-02-22T10:22:23.044Z,99678.09
2023-02-22T10:24:57.224Z,99677.28
2023-02-22T10:27:01.105Z,99676.19
2023-02-22T10:29:07.255Z,99668.06
2023-02-22T10:31:17.347Z,99656.78
2023-02-22T10:33:27.257Z,99671.34
2023-02-22T10:35:41.414Z,99662.19
2023-02-22T10:37:44.512Z,99663.88
2023-02-22T10:39:49.881Z,99665.94
2023-02-22T10:41:56.000Z,99660.81
2023-02-22T10:43:58.971Z,99658.06
2023-02-22T10:46:05.815Z,99659.00
2023-02-22T10:48:13.096Z,99654.63
2023-02-22T10:50:15.939Z,99654.56
2023-02-22T10:52:27.458Z,99652.41
2023-02-22T10:54:40.562Z,99656.78
2023-02-22T10:56:49.106Z,99658.53
2023-02-22T10:58:57.595Z,99653.81
2023-02-22T11:00:59.947Z,99655.03
2023-02-22T11:03:06.158Z,99641.56
2023-02-22T11:05:43.344Z,99642.84
2023-02-22T11:07:45.349Z,99638.81
2023-02-22T11:10:12.017Z,99633.88
2023-02-22T11:12:20.038Z,99629.19
2023-02-22T11:14:31.311Z,99629.31
2023-02-22T11:16:38.304Z,99630.94
2023-02-22T11:18:40.538Z,99634.66
2023-02-22T11:20:42.867Z,99634.34
2023-02-22T11:22:44.968Z,99634.66
2023-02-22T11:24:50.983Z,99633.56
2023-02-22T11:27:01.716Z,99627.00
2023-02-22T11:29:19.337Z,99626.41
2023-02-22T11:31:27.524Z,99623.53
2023-02-22T11:33:30.663Z,99620.50
2023-02-22T11:35:37.404Z,99627.72
2023-02-22T11:37:39.452Z,99616.66
2023-02-22T11:39:43.876Z,99621.13
2023-02-22T11:41:49.395Z,99622.19
2023-02-22T11:43:52.792Z,99626.63
2023-02-22T11:46:12.186Z,99623.22
2023-02-22T11:48:21.380Z,99620.59
2023-02-22T11:50:38.689Z,99615.59
2023-02-22T11:52:50.969Z,99609.53
2023-02-22T11:55:29.743Z,99611.44
2023-02-22T11:58:21.300Z,99610.94
2023-02-22T12:00:35.879Z,99595.66
2023-02-22T12:03:13.525Z,99588.34
2023-02-22T12:06:02.400Z,99594.53
2023-02-22T12:08:20.779Z,99600.03
2023-02-22T12:10:38.776Z,99595.66
2023-02-22T12:12:54.924Z,99595.75
2023-02-22T12:15:09.854Z,99597.50
2023-02-22T12:17:23.830Z,99597.75
2023-02-22T12:19:36.315Z,99596.53
2023-02-22T12:21:45.354Z,99596.81
2023-02-22T12:24:05.775Z,99582.78
2023-02-22T12:26:25.786Z,99582.63
2023-02-22T12:28:27.778Z,99580.16
2023-02-22T12:30:36.108Z,99585.22
2023-02-22T12:32:44.605Z,99593.97
2023-02-22T12:34:54.961Z,99591.72
2023-02-22T12:37:04.804Z,99582.44
2023-02-22T12:39:25.640Z,99594.25
2023-02-22T12:41:39.186Z,99583.66
2023-02-22T12:43:41.869Z,99584.28
2023-02-22T12:46:06.956Z,99584.09
2023-02-22T12:48:36.575Z,99579.22
2023-02-22T12:50:39.010Z,99576.06
2023-02-22T12:52:53.960Z,99581.84
2023-02-22T12:55:12.463Z,99578.78
2023-02-22T12:57:24.964Z,99576.41
2023-02-22T12:59:34.071Z,99575.50
2023-02-22T13:01:44.507Z,99576.75
2023-02-22T13:03:49.417Z,99570.38
2023-02-22T13:06:28.545Z,99573.84
2023-02-22T13:08:41.018Z,99572.72
2023-02-22T13:11:21.601Z,99571.13
2023-02-22T13:13:44.118Z,99566.00
2023-02-22T13:15:55.087Z,99571.25
2023-02-22T13:18:17.058Z,99569.06
2023-02-22T13:20:36.642Z,99571.44
2023-02-22T13:22:48.122Z,99572.78
2023-02-22T13:25:14.495Z,99567.66
2023-02-22T13:27:23.232Z,99564.50
2023-02-22T13:29:33.889Z,99565.56
2023-02-22T13:31:54.859Z,99572.25
2023-02-22T13:34:16.687Z,99575.81
2023-02-22T13:36:38.933Z,99572.44
2023-02-22T13:38:49.723Z,99570.00
2023-02-22T13:41:00.936Z,99572.53
2023-02-22T13:43:34.176Z,99576.09
2023-02-22T13:46:02.482Z,99566.31
2023-02-22T13:48:35.405Z,99577.34
2023-02-22T13:51:06.885Z,99567.06
2023-02-22T13:53:17.312Z,99570.88
2023-02-22T13:55:41.250Z,99576.28
2023-02-22T13:57:50.051Z,99569.72
2023-02-22T14:00:40.048Z,99574.56
2023-02-22T14:03:14.326Z,99563.59
2023-02-22T14:05:41.681Z,99571.13
2023-02-22T14:07:48.733Z,99570.06
2023-02-22T14:09:56.299Z,99568.94
2023-02-22T14:11:58.616Z,99569.22
2023-02-22T14:14:03.395Z,99565.13
2023-02-22T14:16:08.629Z,99566.28
2023-02-22T14:18:17.271Z,99566.50
2023-02-22T14:20:37.041Z,99565.50
2023-02-22T14:22:39.445Z,99563.31
2023-02-22T14:24:51.306Z,99563.38
2023-02-22T14:27:02.146Z,99570.72
2023-02-22T14:29:08.143Z,99566.88
2023-02-22T14:31:33.310Z,99568.31
2023-02-22T14:33:56.463Z,99571.69
2023-02-22T14:35:58.759Z,99569.41
2023-02-22T14:38:02.610Z,99569.41
2023-02-22T14:40:18.797Z,99570.72
2023-02-22T14:42:41.007Z,99574.25
2023-02-22T14:45:01.390Z,99570.81
2023-02-22T14:47:06.900Z,99577.63
2023-02-22T14:49:16.916Z,99583.41
2023-02-22T14:51:36.020Z,99573.19
2023-02-22T14:53:44.572Z,99582.25
2023-02-22T14:56:08.879Z,99583.91
2023-02-22T14:58:19.053Z,99579.84
2023-02-22T15:00:30.986Z,99584.97
2023-02-22T15:02:41.674Z,99581.38
2023-02-22T15:04:52.109Z,99580.88
2023-02-22T15:06:59.071Z,99582.88
2023-02-22T15:09:14.932Z,99579.56
2023-02-22T15:11:31.211Z,99578.09
2023-02-22T15:13:33.619Z,99581.59
2023-02-22T15:15:49.351Z,99580.00
2023-02-22T15:17:58.720Z,99576.06
2023-02-22T15:20:01.252Z,99578.09
2023-02-22T15:22:04.231Z,99576.78
2023-02-22T15:24:08.253Z,99583.25
2023-02-22T15:26:29.176Z,99582.69
2023-02-22T15:28:32.000Z,99586.81
2023-02-22T15:30:35.878Z,99577.97
2023-02-22T15:32:53.264Z,99584.28
2023-02-22T15:35:37.792Z,99579.88
2023-02-22T15:37:40.226Z,99584.34
2023-02-22T15:39:44.200Z,99577.28
2023-02-22T15:41:46.696Z,99584.59
2023-02-22T15:44:23.182Z,99583.53
2023-02-22T15:46:26.347Z,99584.03
2023-02-22T15:48:31.959Z,99586.91
2023-02-22T15:50:35.673Z,99583.53
2023-02-22T15:52:37.814Z,99589.09
2023-02-22T15:54:50.525Z,99593.09
2023-02-22T15:56:57.035Z,99585.59
2023-02-22T15:59:20.848Z,99593.56
2023-02-22T16:01:22.827Z,99599.72
2023-02-22T16:03:29.559Z,99594.63
2023-02-22T16:05:55.746Z,99594.28
2023-02-22T16:07:58.588Z,99599.53
2023-02-22T16:10:08.238Z,99597.00
2023-02-22T16:12:23.181Z,99596.44
2023-02-22T16:14:27.098Z,99599.94
2023-02-22T16:16:41.820Z,99601.22
2023-02-22T16:18:44.275Z,99607.50
2023-02-22T16:20:57.605Z,99604.25
2023-02-22T16:22:59.741Z,99608.94
2023-02-22T16:25:18.912Z,99612.44
2023-02-22T16:27:24.814Z,99613.84
2023-02-22T16:29:27.146Z,99608.94
2023-02-22T16:31:34.035Z,99615.19
2023-02-22T16:33:39.995Z,99615.81
2023-02-22T16:35:52.161Z,99616.78
2023-02-22T16:38:02.868Z,99614.47
2023-02-22T16:40:14.084Z,99623.28
2023-02-22T16:42:22.888Z,99612.69
2023-02-22T16:44:25.887Z,99617.25
2023-02-22T16:46:28.057Z,99620.16
2023-02-22T16:48:38.353Z,99623.13
2023-02-22T16:50:40.957Z,99619.63
2023-02-22T16:52:43.159Z,99627.78
2023-02-22T16:54:46.444Z,99630.47
2023-02-22T16:56:48.681Z,99621.66
2023-02-22T16:58:50.923Z,99622.59
2023-02-22T17:00:52.948Z,99620.91
2023-02-22T17:02:55.011Z,99625.66
2023-02-22T17:04:57.388Z,99628.69
2023-02-22T17:07:02.582Z,99623.44
2023-02-22T17:09:05.921Z,99630.78
2023-02-22T17:11:10.333Z,99633.00
2023-02-22T17:13:23.601Z,99629.44
2023-02-22T17:15:34.825Z,99626.06
2023-02-22T17:17:36.878Z,99625.91
2023-02-22T17:19:39.203Z,99628.72
2023-02-22T17:21:41.349Z,99628.03
2023-02-22T17:23:46.265Z,99622.84
2023-02-22T17:25:53.747Z,99623.00
2023-02-22T17:27:56.123Z,99618.63
2023-02-22T17:29:58.086Z,99616.50
2023-02-22T17:32:00.424Z,99614.00
2023-02-22T17:34:05.091Z,99618.53
2023-02-22T17:36:07.607Z,99617.50
2023-02-22T17:38:10.546Z,99614.81
2023-02-22T17:40:14.870Z,99616.50
2023-02-22T17:42:17.015Z,99616.56
2023-02-22T17:44:19.111Z,99610.44
2023-02-22T17:46:22.496Z,99608.69
2023-02-22T17:48:26.160Z,99610.59
2023-02-22T17:50:28.347Z,99614.22
2023-02-22T17:52:30.582Z,99616.19
2023-02-22T17:54:34.390Z,99610.06
2023-02-22T17:56:36.837Z,99604.75
2023-02-22T17:58:39.788Z,99609.31
2023-02-22T18:00:45.651Z,99608.50
2023-02-22T18:02:48.155Z,99609.47
2023-02-22T18:04:50.258Z,99620.56
2023-02-22T18:06:52.901Z,99610.78
2023-02-22T18:08:57.736Z,99616.28
2023-02-22T18:11:05.319Z,99613.88
2023-02-22T18:13:07.517Z,99618.41
2023-02-22T18:15:17.365Z,99619.34
2023-02-22T18:17:19.371Z,99618.91
2023-02-22T18:19:23.357Z,99619.25
2023-02-22T18:21:27.003Z,99626.03
2023-02-22T18:23:31.915Z,99625.56
2023-02-22T18:25:36.638Z,99619.44
2023-02-22T18:27:38.852Z,99612.19
2023-02-22T18:29:42.285Z,99620.16
2023-02-22T18:31:45.617Z,99615.25
2023-02-22T18:33:50.491Z,99613.09
2023-02-22T18:35:52.785Z,99615.84
2023-02-22T18:37:54.778Z,99608.50
2023-02-22T18:39:58.189Z,99612.25
2023-02-22T18:42:00.241Z,99622.25
2023-02-22T18:44:03.445Z,99619.66
2023-02-22T18:46:11.561Z,99626.25
2023-02-22T18:48:13.604Z,99619.91
2023-02-22T18:50:19.245Z,99620.84
2023-02-22T18:52:24.140Z,99626.34
2023-02-22T18:54:26.769Z,99635.63
2023-02-22T18:56:30.389Z,99633.06
2023-02-22T18:58:32.957Z,99627.75
2023-02-22T19:00:38.535Z,99620.72
2023-02-22T19:02:43.661Z,99623.53
2023-02-22T19:04:45.676Z,99633.56
2023-02-22T19:06:50.892Z,99627.41
2023-02-22T19:08:53.674Z,99628.41
2023-02-22T19:10:55.831Z,99639.41
2023-02-22T19:12:57.944Z,99630.41
2023-02-22T19:15:00.145Z,99632.41
2023-02-22T19:17:02.954Z,99627.25
2023-02-22T19:19:05.800Z,99629.28
2023-02-22T19:21:10.890Z,99624.03
2023-02-22T19:23:12.973Z,99629.84
2023-02-22T19:25:15.176Z,99633.75
2023-02-22T19:27:17.628Z,99632.22
2023-02-22T19:29:23.744Z,99631.31
2023-02-22T19:31:31.586Z,99633.22
2023-02-22T19:33:33.619Z,99631.53
2023-02-22T19:35:36.358Z,99632.78
2023-02-22T19:37:38.366Z,99629.97
2023-02-22T19:39:42.461Z,99626.41
2023-02-22T19:41:44.800Z,99633.66
2023-02-22T19:43:48.667Z,99637.44
2023-02-22T19:45:50.740Z,99632.25
2023-02-22T19:47:56.062Z,99638.72
2023-02-22T19:49:59.797Z,99630.66
2023-02-22T19:52:08.349Z,99637.84
2023-02-22T19:54:17.441Z,99629.09
2023-02-22T19:56:27.292Z,99633.63
2023-02-22T19:58:32.316Z,99639.13
2023-02-22T20:00:35.750Z,99643.84
2023-02-22T20:02:41.895Z,99637.63
2023-02-22T20:04:43.998Z,99634.16
2023-02-22T20:06:47.450Z,99641.38
2023-02-22T20:08:51.152Z,99645.00
2023-02-22T20:10:58.354Z,99644.31
2023-02-22T20:13:01.439Z,99647.91
2023-02-22T20:15:03.548Z,99644.31
2023-02-22T20:17:07.335Z,99646.31
2023-02-22T20:19:09.292Z,99636.53
2023-02-22T20:21:18.721Z,99644.66
2023-02-22T20:23:20.982Z,99643.78
2023-02-22T20:25:23.107Z,99642.97
2023-02-22T20:27:25.093Z,99642.22
2023-02-22T20:29:30.280Z,99643.28
2023-02-22T20:31:33.117Z,99644.25
2023-02-22T20:33:41.802Z,99642.59
2023-02-22T20:35:44.092Z,99648.03
2023-02-22T20:37:46.010Z,99647.19
2023-02-22T20:39:48.122Z,99642.94
2023-02-22T20:41:50.309Z,99648.22
2023-02-22T20:43:53.662Z,99646.59
2023-02-22T20:45:55.859Z,99650.31
2023-02-22T20:48:00.144Z,99651.28
2023-02-22T20:50:02.323Z,99646.94
2023-02-22T20:52:05.072Z,99640.69
2023-02-22T20:54:08.735Z,99639.09
2023-02-22T20:56:16.143Z,99645.56
2023-02-22T20:58:23.212Z,99646.81
2023-02-22T21:00:26.642Z,99643.06
2023-02-22T21:02:30.435Z,99638.63
2023-02-22T21:04:33.412Z,99652.19
2023-02-22T21:06:36.914Z,99646.91
2023-02-22T21:08:38.757Z,99648.78
2023-02-22T21:10:42.580Z,99654.16
2023-02-22T21:12:47.941Z,99648.94
2023-02-22T21:14:50.099Z,99648.16
2023-02-22T21:16:52.796Z,99641.97
2023-02-22T21:18:58.894Z,99655.56
2023-02-22T21:21:12.607Z,99656.59
2023-02-22T21:23:15.998Z,99658.41
2023-02-22T21:25:18.502Z,99650.38
2023-02-22T21:27:20.775Z,99652.31
2023-02-22T21:29:23.073Z,99647.91
2023-02-22T21:31:25.393Z,99645.19
2023-02-22T21:33:28.948Z,99640.88
2023-02-22T21:35:35.363Z,99651.66
2023-02-22T21:37:40.341Z,99657.19
2023-02-22T21:39:47.790Z,99644.88
2023-02-22T21:41:52.331Z,99645.03
2023-02-22T21:43:55.636Z,99647.78
2023-02-22T21:46:03.030Z,99648.72
2023-02-22T21:48:05.926Z,99644.34
2023-02-22T21:50:10.370Z,99647.03
2023-02-22T21:52:12.341Z,99643.59
2023-02-22T21:54:17.047Z,99641.03
2023-02-22T21:56:24.443Z,99643.84
2023-02-22T21:58:28.212Z,99639.44
2023-02-22T22:00:31.196Z,99636.84
2023-02-22T22:02:33.359Z,99636.97
2023-02-22T22:04:35.346Z,99637.09
2023-02-22T22:06:37.626Z,99640.88
2023-02-22T22:08:42.055Z,99632.94
2023-02-22T22:10:44.031Z,99632.09
2023-02-22T22:12:46.271Z,99627.78
2023-02-22T22:14:50.396Z,99642.03
2023-02-22T22:16:58.443Z,99632.47
2023-02-22T22:19:00.600Z,99643.19
2023-02-22T22:21:10.964Z,99644.16
2023-02-22T22:23:12.961Z,99635.28
2023-02-22T22:25:19.079Z,99638.84
2023-02-22T22:27:21.395Z,99643.34
2023-02-22T22:29:26.686Z,99641.59
2023-02-22T22:31:29.229Z,99645.16
2023-02-22T22:33:31.334Z,99645.28
2023-02-22T22:35:33.690Z,99652.47
2023-02-22T22:37:35.795Z,99655.19
2023-02-22T22:39:38.698Z,99659.66
2023-02-22T22:41:44.935Z,99653.53
2023-02-22T22:43:47.281Z,99654.53
2023-02-22T22:45:49.332Z,99654.66
2023-02-22T22:47:52.279Z,99656.44
2023-02-22T22:50:01.505Z,99655.59
2023-02-22T22:52:03.499Z,99658.28
2023-02-22T22:54:10.309Z,99664.69
2023-02-22T22:56:21.198Z,99668.31
2023-02-22T22:58:24.180Z,99661.13
2023-02-22T23:00:37.722Z,99667.47
2023-02-22T23:02:40.790Z,99659.50
2023-02-22T23:04:42.725Z,99667.56
2023-02-22T23:06:47.136Z,99665.00
2023-02-22T23:09:00.155Z,99669.66
2023-02-22T23:11:09.497Z,99664.34
2023-02-22T23:13:12.824Z,99665.28
2023-02-22T23:15:14.794Z,99663.47
2023-02-22T23:17:31.197Z,99659.00
2023-02-22T23:19:35.838Z,99661.84
2023-02-22T23:21:39.115Z,99668.03
2023-02-22T23:23:41.559Z,99666.59
2023-02-22T23:25:49.756Z,99670.13
2023-02-22T23:27:53.735Z,99669.25
2023-02-22T23:29:56.041Z,99663.91
2023-02-22T23:31:59.168Z,99665.72
2023-02-22T23:34:06.698Z,99668.53
2023-02-22T23:36:10.630Z,99661.44
2023-02-22T23:38:12.688Z,99664.09
2023-02-22T23:40:18.932Z,99662.50
2023-02-22T23:42:23.085Z,99658.78
2023-02-22T23:44:27.356Z,99666.13
2023-02-22T23:46:33.029Z,99671.47
2023-02-22T23:48:35.861Z,99668.88
2023-02-22T23:50:37.820Z,99671.72
2023-02-22T23:52:39.938Z,99667.25
2023-02-22T23:54:44.216Z,99671.91
2023-02-22T23:57:02.567Z,99672.78
2023-02-22T23:59:11.434Z,99680.00
